sensor_id;sensor_type;location;lat;lon;timestamp;P1;durP1;ratioP1;P2;durP2;ratioP2
23565;SDS011;22140;48.988;8.544;2023-12-20T00:00:13;6.85;;;2.10;;
23565;SDS011;22140;48.988;8.544;2023-12-20T00:05:15;7.40;;;2.53;;
23565;SDS011;22140;48.988;8.544;2023-12-20T00:10:16;7.15;;;2.55;;
23565;SDS011;22140;48.988;8.544;2023-12-20T00:15:17;7.07;;;2.70;;
23565;SDS011;22140;48.988;8.544;2023-12-20T00:20:19;8.30;;;2.85;;
23565;SDS011;22140;48.988;8.544;2023-12-20T00:25:20;7.20;;;2.60;;
23565;SDS011;22140;48.988;8.544;2023-12-20T00:30:22;7.55;;;3.00;;
23565;SDS011;22140;48.988;8.544;2023-12-20T00:35:24;8.15;;;2.78;;
23565;SDS011;22140;48.988;8.544;2023-12-20T00:40:25;9.07;;;2.80;;
23565;SDS011;22140;48.988;8.544;2023-12-20T00:45:27;7.75;;;2.88;;
23565;SDS011;22140;48.988;8.544;2023-12-20T00:50:28;6.88;;;2.60;;
23565;SDS011;22140;48.988;8.544;2023-12-20T00:55:30;6.30;;;2.50;;
23565;SDS011;22140;48.988;8.544;2023-12-20T01:00:32;7.40;;;2.60;;
23565;SDS011;22140;48.988;8.544;2023-12-20T01:05:33;7.10;;;2.60;;
23565;SDS011;22140;48.988;8.544;2023-12-20T01:10:35;6.40;;;2.40;;
23565;SDS011;22140;48.988;8.544;2023-12-20T01:15:36;6.55;;;2.20;;
23565;SDS011;22140;48.988;8.544;2023-12-20T01:20:37;5.97;;;1.90;;
23565;SDS011;22140;48.988;8.544;2023-12-20T01:25:39;8.18;;;1.88;;
23565;SDS011;22140;48.988;8.544;2023-12-20T01:30:40;6.27;;;1.93;;
23565;SDS011;22140;48.988;8.544;2023-12-20T01:35:41;6.20;;;1.70;;
23565;SDS011;22140;48.988;8.544;2023-12-20T01:40:43;7.35;;;2.00;;
23565;SDS011;22140;48.988;8.544;2023-12-20T01:45:44;6.82;;;2.05;;
23565;SDS011;22140;48.988;8.544;2023-12-20T01:50:45;6.07;;;1.90;;
23565;SDS011;22140;48.988;8.544;2023-12-20T01:55:47;5.63;;;1.93;;
23565;SDS011;22140;48.988;8.544;2023-12-20T02:00:49;5.30;;;1.55;;
23565;SDS011;22140;48.988;8.544;2023-12-20T02:05:50;5.97;;;1.77;;
23565;SDS011;22140;48.988;8.544;2023-12-20T02:10:51;6.32;;;2.00;;
23565;SDS011;22140;48.988;8.544;2023-12-20T02:15:54;5.97;;;1.63;;
23565;SDS011;22140;48.988;8.544;2023-12-20T02:20:55;5.43;;;1.60;;
23565;SDS011;22140;48.988;8.544;2023-12-20T02:25:57;5.03;;;1.40;;
23565;SDS011;22140;48.988;8.544;2023-12-20T02:31:01;4.93;;;1.50;;
23565;SDS011;22140;48.988;8.544;2023-12-20T02:36:03;5.43;;;1.67;;
23565;SDS011;22140;48.988;8.544;2023-12-20T02:41:04;4.80;;;1.60;;
23565;SDS011;22140;48.988;8.544;2023-12-20T02:46:07;5.67;;;1.60;;
23565;SDS011;22140;48.988;8.544;2023-12-20T02:51:08;4.78;;;1.42;;
23565;SDS011;22140;48.988;8.544;2023-12-20T02:56:10;5.70;;;1.60;;
23565;SDS011;22140;48.988;8.544;2023-12-20T03:01:11;5.72;;;1.63;;
23565;SDS011;22140;48.988;8.544;2023-12-20T03:06:15;5.47;;;1.77;;
23565;SDS011;22140;48.988;8.544;2023-12-20T03:11:17;5.70;;;2.00;;
23565;SDS011;22140;48.988;8.544;2023-12-20T03:16:18;6.43;;;1.75;;
23565;SDS011;22140;48.988;8.544;2023-12-20T03:21:19;5.72;;;1.80;;
23565;SDS011;22140;48.988;8.544;2023-12-20T03:26:23;5.65;;;1.80;;
23565;SDS011;22140;48.988;8.544;2023-12-20T03:31:24;5.93;;;1.85;;
23565;SDS011;22140;48.988;8.544;2023-12-20T03:36:28;5.00;;;1.70;;
23565;SDS011;22140;48.988;8.544;2023-12-20T03:41:29;4.78;;;1.42;;
23565;SDS011;22140;48.988;8.544;2023-12-20T03:46:30;5.70;;;1.60;;
23565;SDS011;22140;48.988;8.544;2023-12-20T03:51:32;4.88;;;1.42;;
23565;SDS011;22140;48.988;8.544;2023-12-20T03:56:33;4.88;;;1.45;;
23565;SDS011;22140;48.988;8.544;2023-12-20T04:01:34;5.37;;;1.63;;
23565;SDS011;22140;48.988;8.544;2023-12-20T04:06:37;5.13;;;1.55;;
23565;SDS011;22140;48.988;8.544;2023-12-20T04:11:39;4.97;;;1.52;;
23565;SDS011;22140;48.988;8.544;2023-12-20T04:16:40;5.38;;;1.85;;
23565;SDS011;22140;48.988;8.544;2023-12-20T04:21:46;6.13;;;1.63;;
23565;SDS011;22140;48.988;8.544;2023-12-20T04:26:47;6.03;;;1.70;;
23565;SDS011;22140;48.988;8.544;2023-12-20T04:31:48;5.03;;;1.50;;
23565;SDS011;22140;48.988;8.544;2023-12-20T04:36:52;6.53;;;1.90;;
23565;SDS011;22140;48.988;8.544;2023-12-20T04:41:54;6.78;;;1.92;;
23565;SDS011;22140;48.988;8.544;2023-12-20T04:46:55;7.32;;;2.08;;
23565;SDS011;22140;48.988;8.544;2023-12-20T04:51:57;7.63;;;2.03;;
23565;SDS011;22140;48.988;8.544;2023-12-20T04:56:59;6.57;;;2.25;;
23565;SDS011;22140;48.988;8.544;2023-12-20T05:02:00;6.68;;;2.22;;
23565;SDS011;22140;48.988;8.544;2023-12-20T05:07:02;7.43;;;2.40;;
23565;SDS011;22140;48.988;8.544;2023-12-20T05:12:06;7.60;;;2.40;;
23565;SDS011;22140;48.988;8.544;2023-12-20T05:17:07;8.43;;;2.70;;
23565;SDS011;22140;48.988;8.544;2023-12-20T05:22:11;6.32;;;2.47;;
23565;SDS011;22140;48.988;8.544;2023-12-20T05:27:13;7.95;;;2.92;;
23565;SDS011;22140;48.988;8.544;2023-12-20T05:32:14;6.93;;;2.30;;
23565;SDS011;22140;48.988;8.544;2023-12-20T05:37:15;6.43;;;2.40;;
23565;SDS011;22140;48.988;8.544;2023-12-20T05:42:17;7.13;;;2.60;;
23565;SDS011;22140;48.988;8.544;2023-12-20T05:47:18;6.55;;;2.20;;
23565;SDS011;22140;48.988;8.544;2023-12-20T05:52:19;6.88;;;2.70;;
23565;SDS011;22140;48.988;8.544;2023-12-20T05:57:21;7.30;;;2.85;;
23565;SDS011;22140;48.988;8.544;2023-12-20T06:02:22;7.53;;;2.90;;
23565;SDS011;22140;48.988;8.544;2023-12-20T06:07:26;7.37;;;2.43;;
23565;SDS011;22140;48.988;8.544;2023-12-20T06:12:28;6.53;;;2.63;;
23565;SDS011;22140;48.988;8.544;2023-12-20T06:17:30;6.97;;;3.28;;
23565;SDS011;22140;48.988;8.544;2023-12-20T06:22:32;7.38;;;2.60;;
23565;SDS011;22140;48.988;8.544;2023-12-20T06:27:33;6.60;;;2.67;;
23565;SDS011;22140;48.988;8.544;2023-12-20T06:32:35;7.43;;;3.00;;
23565;SDS011;22140;48.988;8.544;2023-12-20T06:37:36;6.75;;;2.60;;
23565;SDS011;22140;48.988;8.544;2023-12-20T06:42:38;7.55;;;2.97;;
23565;SDS011;22140;48.988;8.544;2023-12-20T06:47:53;6.53;;;2.67;;
23565;SDS011;22140;48.988;8.544;2023-12-20T06:52:55;6.10;;;2.30;;
23565;SDS011;22140;48.988;8.544;2023-12-20T06:58:00;5.97;;;2.50;;
23565;SDS011;22140;48.988;8.544;2023-12-20T07:03:02;5.82;;;2.10;;
23565;SDS011;22140;48.988;8.544;2023-12-20T07:08:06;7.00;;;2.42;;
23565;SDS011;22140;48.988;8.544;2023-12-20T07:13:08;6.57;;;2.30;;
23565;SDS011;22140;48.988;8.544;2023-12-20T07:18:09;6.75;;;2.28;;
23565;SDS011;22140;48.988;8.544;2023-12-20T07:23:11;6.60;;;2.27;;
23565;SDS011;22140;48.988;8.544;2023-12-20T07:28:12;6.60;;;2.55;;
23565;SDS011;22140;48.988;8.544;2023-12-20T07:33:14;7.50;;;2.40;;
23565;SDS011;22140;48.988;8.544;2023-12-20T07:38:15;7.32;;;2.83;;
23565;SDS011;22140;48.988;8.544;2023-12-20T07:43:17;7.00;;;2.50;;
23565;SDS011;22140;48.988;8.544;2023-12-20T07:48:18;7.77;;;2.53;;
23565;SDS011;22140;48.988;8.544;2023-12-20T07:53:20;6.60;;;2.50;;
23565;SDS011;22140;48.988;8.544;2023-12-20T07:58:21;8.18;;;2.90;;
23565;SDS011;22140;48.988;8.544;2023-12-20T08:03:36;8.80;;;3.10;;
23565;SDS011;22140;48.988;8.544;2023-12-20T08:08:37;7.03;;;2.65;;
23565;SDS011;22140;48.988;8.544;2023-12-20T08:13:39;7.20;;;2.87;;
23565;SDS011;22140;48.988;8.544;2023-12-20T08:18:40;7.00;;;2.42;;
23565;SDS011;22140;48.988;8.544;2023-12-20T08:23:41;7.65;;;2.80;;
23565;SDS011;22140;48.988;8.544;2023-12-20T08:28:43;7.28;;;2.53;;
23565;SDS011;22140;48.988;8.544;2023-12-20T08:33:44;7.13;;;2.60;;
23565;SDS011;22140;48.988;8.544;2023-12-20T08:38:46;6.07;;;2.53;;
23565;SDS011;22140;48.988;8.544;2023-12-20T08:43:48;8.18;;;2.30;;
23565;SDS011;22140;48.988;8.544;2023-12-20T08:48:49;7.38;;;2.30;;
23565;SDS011;22140;48.988;8.544;2023-12-20T08:53:51;7.95;;;1.75;;
23565;SDS011;22140;48.988;8.544;2023-12-20T08:58:52;5.80;;;1.38;;
23565;SDS011;22140;48.988;8.544;2023-12-20T09:03:54;7.20;;;1.63;;
23565;SDS011;22140;48.988;8.544;2023-12-20T09:08:55;6.63;;;1.50;;
23565;SDS011;22140;48.988;8.544;2023-12-20T09:13:56;6.88;;;1.60;;
23565;SDS011;22140;48.988;8.544;2023-12-20T09:18:58;7.40;;;1.80;;
23565;SDS011;22140;48.988;8.544;2023-12-20T09:23:59;8.77;;;2.00;;
23565;SDS011;22140;48.988;8.544;2023-12-20T09:29:01;8.23;;;1.80;;
23565;SDS011;22140;48.988;8.544;2023-12-20T09:34:02;9.55;;;2.53;;
23565;SDS011;22140;48.988;8.544;2023-12-20T09:39:04;7.50;;;2.08;;
23565;SDS011;22140;48.988;8.544;2023-12-20T09:44:06;7.28;;;2.15;;
23565;SDS011;22140;48.988;8.544;2023-12-20T09:49:09;8.57;;;1.80;;
23565;SDS011;22140;48.988;8.544;2023-12-20T09:54:11;6.90;;;2.20;;
23565;SDS011;22140;48.988;8.544;2023-12-20T09:59:13;8.07;;;2.30;;
23565;SDS011;22140;48.988;8.544;2023-12-20T10:04:15;8.20;;;2.30;;
23565;SDS011;22140;48.988;8.544;2023-12-20T10:09:30;9.93;;;2.17;;
23565;SDS011;22140;48.988;8.544;2023-12-20T10:14:32;6.55;;;1.80;;
23565;SDS011;22140;48.988;8.544;2023-12-20T10:19:33;9.70;;;2.07;;
23565;SDS011;22140;48.988;8.544;2023-12-20T10:24:35;9.07;;;2.00;;
23565;SDS011;22140;48.988;8.544;2023-12-20T10:29:37;7.32;;;2.00;;
23565;SDS011;22140;48.988;8.544;2023-12-20T10:34:39;8.80;;;2.17;;
23565;SDS011;22140;48.988;8.544;2023-12-20T10:39:41;11.00;;;1.98;;
23565;SDS011;22140;48.988;8.544;2023-12-20T10:44:43;12.37;;;2.23;;
23565;SDS011;22140;48.988;8.544;2023-12-20T10:49:45;10.15;;;2.13;;
23565;SDS011;22140;48.988;8.544;2023-12-20T10:54:46;8.80;;;2.10;;
23565;SDS011;22140;48.988;8.544;2023-12-20T10:59:48;7.60;;;2.38;;
23565;SDS011;22140;48.988;8.544;2023-12-20T11:04:53;9.68;;;1.90;;
23565;SDS011;22140;48.988;8.544;2023-12-20T11:10:00;10.07;;;2.10;;
23565;SDS011;22140;48.988;8.544;2023-12-20T11:15:02;7.35;;;1.83;;
23565;SDS011;22140;48.988;8.544;2023-12-20T11:20:06;9.25;;;1.73;;
23565;SDS011;22140;48.988;8.544;2023-12-20T11:25:09;11.27;;;2.05;;
23565;SDS011;22140;48.988;8.544;2023-12-20T11:30:11;10.80;;;1.92;;
23565;SDS011;22140;48.988;8.544;2023-12-20T11:40:15;8.38;;;2.17;;
23565;SDS011;22140;48.988;8.544;2023-12-20T11:45:21;9.27;;;2.50;;
23565;SDS011;22140;48.988;8.544;2023-12-20T11:50:24;11.20;;;2.00;;
23565;SDS011;22140;48.988;8.544;2023-12-20T11:55:26;7.78;;;2.15;;
23565;SDS011;22140;48.988;8.544;2023-12-20T12:00:27;6.57;;;1.80;;
23565;SDS011;22140;48.988;8.544;2023-12-20T12:05:30;9.45;;;2.22;;
23565;SDS011;22140;48.988;8.544;2023-12-20T12:10:32;8.93;;;1.80;;
23565;SDS011;22140;48.988;8.544;2023-12-20T12:15:33;8.50;;;1.88;;
23565;SDS011;22140;48.988;8.544;2023-12-20T12:20:34;8.85;;;2.70;;
23565;SDS011;22140;48.988;8.544;2023-12-20T12:25:38;8.20;;;2.00;;
23565;SDS011;22140;48.988;8.544;2023-12-20T12:30:55;10.57;;;2.22;;
23565;SDS011;22140;48.988;8.544;2023-12-20T12:35:57;12.52;;;2.80;;
23565;SDS011;22140;48.988;8.544;2023-12-20T12:40:58;10.60;;;2.30;;
23565;SDS011;22140;48.988;8.544;2023-12-20T12:46:01;12.50;;;3.22;;
23565;SDS011;22140;48.988;8.544;2023-12-20T12:51:03;9.57;;;1.80;;
23565;SDS011;22140;48.988;8.544;2023-12-20T12:56:04;11.82;;;2.15;;
23565;SDS011;22140;48.988;8.544;2023-12-20T13:01:06;8.13;;;2.25;;
23565;SDS011;22140;48.988;8.544;2023-12-20T13:06:07;13.10;;;2.60;;
23565;SDS011;22140;48.988;8.544;2023-12-20T13:11:10;7.97;;;2.45;;
23565;SDS011;22140;48.988;8.544;2023-12-20T13:16:11;9.87;;;2.50;;
23565;SDS011;22140;48.988;8.544;2023-12-20T13:21:12;12.23;;;2.60;;
23565;SDS011;22140;48.988;8.544;2023-12-20T13:26:14;10.35;;;1.92;;
23565;SDS011;22140;48.988;8.544;2023-12-20T13:31:17;9.82;;;1.95;;
23565;SDS011;22140;48.988;8.544;2023-12-20T13:36:18;9.85;;;2.30;;
23565;SDS011;22140;48.988;8.544;2023-12-20T13:41:20;10.43;;;1.80;;
23565;SDS011;22140;48.988;8.544;2023-12-20T13:46:21;10.95;;;2.13;;
23565;SDS011;22140;48.988;8.544;2023-12-20T13:51:23;11.48;;;1.85;;
23565;SDS011;22140;48.988;8.544;2023-12-20T13:56:25;10.60;;;2.00;;
23565;SDS011;22140;48.988;8.544;2023-12-20T14:01:26;10.40;;;2.22;;
23565;SDS011;22140;48.988;8.544;2023-12-20T14:06:28;13.13;;;2.00;;
23565;SDS011;22140;48.988;8.544;2023-12-20T14:11:29;13.88;;;1.98;;
23565;SDS011;22140;48.988;8.544;2023-12-20T14:16:30;9.85;;;1.90;;
23565;SDS011;22140;48.988;8.544;2023-12-20T14:21:32;8.05;;;1.63;;
23565;SDS011;22140;48.988;8.544;2023-12-20T14:26:36;8.45;;;2.08;;
23565;SDS011;22140;48.988;8.544;2023-12-20T14:31:38;20.83;;;5.27;;
23565;SDS011;22140;48.988;8.544;2023-12-20T14:36:41;10.65;;;2.35;;
23565;SDS011;22140;48.988;8.544;2023-12-20T14:41:43;11.18;;;2.50;;
23565;SDS011;22140;48.988;8.544;2023-12-20T14:46:44;6.82;;;2.00;;
23565;SDS011;22140;48.988;8.544;2023-12-20T14:51:45;9.40;;;2.20;;
23565;SDS011;22140;48.988;8.544;2023-12-20T14:56:49;13.03;;;2.63;;
23565;SDS011;22140;48.988;8.544;2023-12-20T15:01:50;9.07;;;1.75;;
23565;SDS011;22140;48.988;8.544;2023-12-20T15:06:52;9.52;;;2.22;;
23565;SDS011;22140;48.988;8.544;2023-12-20T15:11:54;10.13;;;2.17;;
23565;SDS011;22140;48.988;8.544;2023-12-20T15:16:55;8.43;;;1.90;;
23565;SDS011;22140;48.988;8.544;2023-12-20T15:21:57;10.23;;;1.80;;
23565;SDS011;22140;48.988;8.544;2023-12-20T15:27:00;10.38;;;1.98;;
23565;SDS011;22140;48.988;8.544;2023-12-20T15:32:01;8.40;;;1.63;;
23565;SDS011;22140;48.988;8.544;2023-12-20T15:37:04;10.70;;;2.00;;
23565;SDS011;22140;48.988;8.544;2023-12-20T15:42:06;11.35;;;1.90;;
23565;SDS011;22140;48.988;8.544;2023-12-20T15:47:07;6.60;;;1.73;;
23565;SDS011;22140;48.988;8.544;2023-12-20T15:52:09;11.05;;;1.92;;
23565;SDS011;22140;48.988;8.544;2023-12-20T15:57:10;9.50;;;2.00;;
23565;SDS011;22140;48.988;8.544;2023-12-20T16:02:11;10.75;;;1.70;;
23565;SDS011;22140;48.988;8.544;2023-12-20T16:07:13;8.77;;;1.80;;
23565;SDS011;22140;48.988;8.544;2023-12-20T16:12:14;11.60;;;3.27;;
23565;SDS011;22140;48.988;8.544;2023-12-20T16:17:16;10.75;;;2.28;;
23565;SDS011;22140;48.988;8.544;2023-12-20T16:22:18;10.38;;;2.00;;
23565;SDS011;22140;48.988;8.544;2023-12-20T16:27:19;9.27;;;1.60;;
23565;SDS011;22140;48.988;8.544;2023-12-20T16:32:21;9.90;;;1.80;;
23565;SDS011;22140;48.988;8.544;2023-12-20T16:37:22;9.50;;;1.90;;
23565;SDS011;22140;48.988;8.544;2023-12-20T16:42:24;8.48;;;1.75;;
23565;SDS011;22140;48.988;8.544;2023-12-20T16:47:28;8.82;;;1.40;;
23565;SDS011;22140;48.988;8.544;2023-12-20T16:52:29;9.82;;;2.17;;
23565;SDS011;22140;48.988;8.544;2023-12-20T16:57:31;8.50;;;1.73;;
23565;SDS011;22140;48.988;8.544;2023-12-20T17:02:32;6.83;;;1.43;;
23565;SDS011;22140;48.988;8.544;2023-12-20T17:07:34;11.38;;;1.55;;
23565;SDS011;22140;48.988;8.544;2023-12-20T17:12:36;8.93;;;1.40;;
23565;SDS011;22140;48.988;8.544;2023-12-20T17:17:37;7.75;;;1.73;;
23565;SDS011;22140;48.988;8.544;2023-12-20T17:22:39;11.25;;;1.90;;
23565;SDS011;22140;48.988;8.544;2023-12-20T17:27:40;6.77;;;1.63;;
23565;SDS011;22140;48.988;8.544;2023-12-20T17:32:42;8.45;;;1.85;;
23565;SDS011;22140;48.988;8.544;2023-12-20T17:37:50;7.90;;;1.27;;
23565;SDS011;22140;48.988;8.544;2023-12-20T17:42:53;6.35;;;1.20;;
23565;SDS011;22140;48.988;8.544;2023-12-20T17:47:57;7.90;;;1.50;;
23565;SDS011;22140;48.988;8.544;2023-12-20T17:52:59;8.60;;;1.60;;
23565;SDS011;22140;48.988;8.544;2023-12-20T17:58:00;6.30;;;1.58;;
23565;SDS011;22140;48.988;8.544;2023-12-20T18:03:02;9.30;;;1.20;;
23565;SDS011;22140;48.988;8.544;2023-12-20T18:08:04;5.50;;;1.30;;
23565;SDS011;22140;48.988;8.544;2023-12-20T18:13:06;8.00;;;1.55;;
23565;SDS011;22140;48.988;8.544;2023-12-20T18:18:07;6.20;;;1.10;;
23565;SDS011;22140;48.988;8.544;2023-12-20T18:23:12;8.07;;;1.10;;
23565;SDS011;22140;48.988;8.544;2023-12-20T18:28:14;5.45;;;1.17;;
23565;SDS011;22140;48.988;8.544;2023-12-20T18:33:15;9.15;;;1.52;;
23565;SDS011;22140;48.988;8.544;2023-12-20T18:38:17;5.68;;;1.48;;
23565;SDS011;22140;48.988;8.544;2023-12-20T18:43:21;5.80;;;1.00;;
23565;SDS011;22140;48.988;8.544;2023-12-20T18:48:24;8.52;;;1.38;;
23565;SDS011;22140;48.988;8.544;2023-12-20T18:53:25;4.63;;;1.10;;
23565;SDS011;22140;48.988;8.544;2023-12-20T18:58:27;5.97;;;1.17;;
23565;SDS011;22140;48.988;8.544;2023-12-20T19:03:32;8.10;;;1.60;;
23565;SDS011;22140;48.988;8.544;2023-12-20T19:08:33;5.53;;;1.37;;
23565;SDS011;22140;48.988;8.544;2023-12-20T19:13:35;5.88;;;1.38;;
23565;SDS011;22140;48.988;8.544;2023-12-20T19:18:36;7.47;;;1.35;;
23565;SDS011;22140;48.988;8.544;2023-12-20T19:23:38;4.55;;;1.00;;
23565;SDS011;22140;48.988;8.544;2023-12-20T19:28:43;6.47;;;1.13;;
23565;SDS011;22140;48.988;8.544;2023-12-20T19:33:46;8.47;;;1.97;;
23565;SDS011;22140;48.988;8.544;2023-12-20T19:38:51;8.82;;;1.33;;
23565;SDS011;22140;48.988;8.544;2023-12-20T19:43:53;9.55;;;1.33;;
23565;SDS011;22140;48.988;8.544;2023-12-20T19:48:59;5.22;;;1.30;;
23565;SDS011;22140;48.988;8.544;2023-12-20T19:54:00;8.45;;;1.45;;
23565;SDS011;22140;48.988;8.544;2023-12-20T19:59:02;5.90;;;1.17;;
23565;SDS011;22140;48.988;8.544;2023-12-20T20:04:03;7.70;;;1.33;;
23565;SDS011;22140;48.988;8.544;2023-12-20T20:09:05;6.10;;;1.40;;
23565;SDS011;22140;48.988;8.544;2023-12-20T20:14:06;5.50;;;1.00;;
23565;SDS011;22140;48.988;8.544;2023-12-20T20:19:08;12.07;;;1.83;;
23565;SDS011;22140;48.988;8.544;2023-12-20T20:24:12;9.30;;;1.20;;
23565;SDS011;22140;48.988;8.544;2023-12-20T20:29:14;5.07;;;1.00;;
23565;SDS011;22140;48.988;8.544;2023-12-20T20:34:15;5.20;;;1.23;;
23565;SDS011;22140;48.988;8.544;2023-12-20T20:39:18;5.47;;;0.88;;
23565;SDS011;22140;48.988;8.544;2023-12-20T20:44:20;6.28;;;1.17;;
23565;SDS011;22140;48.988;8.544;2023-12-20T20:49:21;5.63;;;1.00;;
23565;SDS011;22140;48.988;8.544;2023-12-20T20:54:24;5.70;;;1.00;;
23565;SDS011;22140;48.988;8.544;2023-12-20T20:59:26;5.38;;;1.10;;
23565;SDS011;22140;48.988;8.544;2023-12-20T21:04:27;5.03;;;0.90;;
23565;SDS011;22140;48.988;8.544;2023-12-20T21:09:29;6.10;;;0.90;;
23565;SDS011;22140;48.988;8.544;2023-12-20T21:14:30;5.60;;;0.90;;
23565;SDS011;22140;48.988;8.544;2023-12-20T21:19:31;4.40;;;1.00;;
23565;SDS011;22140;48.988;8.544;2023-12-20T21:24:33;6.10;;;1.00;;
23565;SDS011;22140;48.988;8.544;2023-12-20T21:29:36;6.20;;;0.98;;
23565;SDS011;22140;48.988;8.544;2023-12-20T21:34:38;3.63;;;0.93;;
23565;SDS011;22140;48.988;8.544;2023-12-20T21:39:41;5.23;;;1.13;;
23565;SDS011;22140;48.988;8.544;2023-12-20T21:44:42;7.22;;;2.15;;
23565;SDS011;22140;48.988;8.544;2023-12-20T21:49:43;7.28;;;0.93;;
23565;SDS011;22140;48.988;8.544;2023-12-20T21:54:45;4.10;;;0.85;;
23565;SDS011;22140;48.988;8.544;2023-12-20T21:59:47;3.33;;;0.60;;
23565;SDS011;22140;48.988;8.544;2023-12-20T22:04:48;4.93;;;0.70;;
23565;SDS011;22140;48.988;8.544;2023-12-20T22:09:50;5.28;;;0.70;;
23565;SDS011;22140;48.988;8.544;2023-12-20T22:14:55;4.55;;;0.90;;
23565;SDS011;22140;48.988;8.544;2023-12-20T22:19:56;3.90;;;0.77;;
23565;SDS011;22140;48.988;8.544;2023-12-20T22:24:58;5.25;;;1.00;;
23565;SDS011;22140;48.988;8.544;2023-12-20T22:29:59;2.37;;;0.60;;
23565;SDS011;22140;48.988;8.544;2023-12-20T22:35:00;3.85;;;0.80;;
23565;SDS011;22140;48.988;8.544;2023-12-20T22:40:02;3.25;;;0.68;;
23565;SDS011;22140;48.988;8.544;2023-12-20T22:45:04;6.10;;;0.70;;
23565;SDS011;22140;48.988;8.544;2023-12-20T22:50:06;3.47;;;0.70;;
23565;SDS011;22140;48.988;8.544;2023-12-20T22:55:07;3.10;;;0.70;;
23565;SDS011;22140;48.988;8.544;2023-12-20T23:00:09;4.38;;;0.88;;
23565;SDS011;22140;48.988;8.544;2023-12-20T23:05:10;4.97;;;1.10;;
23565;SDS011;22140;48.988;8.544;2023-12-20T23:10:12;2.75;;;0.55;;
23565;SDS011;22140;48.988;8.544;2023-12-20T23:15:13;3.67;;;0.70;;
23565;SDS011;22140;48.988;8.544;2023-12-20T23:20:15;3.87;;;0.50;;
23565;SDS011;22140;48.988;8.544;2023-12-20T23:25:19;1.95;;;0.60;;
23565;SDS011;22140;48.988;8.544;2023-12-20T23:30:20;1.58;;;0.32;;
23565;SDS011;22140;48.988;8.544;2023-12-20T23:35:22;2.25;;;0.40;;
23565;SDS011;22140;48.988;8.544;2023-12-20T23:40:23;3.55;;;0.55;;
23565;SDS011;22140;48.988;8.544;2023-12-20T23:45:29;4.50;;;0.53;;
23565;SDS011;22140;48.988;8.544;2023-12-20T23:50:31;3.65;;;0.50;;
23565;SDS011;22140;48.988;8.544;2023-12-20T23:55:32;3.55;;;0.60;;
